createdAt,value
2022-11-13T00:00:01.297Z,674.72
2022-11-13T00:01:01.332Z,674
2022-11-13T00:02:01.308Z,674.17
2022-11-13T00:03:01.353Z,674.21
2022-11-13T00:04:01.305Z,674.23
2022-11-13T00:05:04.082Z,674.39
2022-11-13T00:06:01.309Z,674.19
2022-11-13T00:07:01.389Z,673.72
2022-11-13T00:08:01.351Z,673.41
2022-11-13T00:09:01.309Z,672.33
2022-11-13T00:10:01.311Z,671.11
2022-11-13T00:11:01.313Z,670.59
2022-11-13T00:12:01.325Z,669.49
2022-11-13T00:13:01.341Z,668.77
2022-11-13T00:14:01.318Z,668.6
2022-11-13T00:15:01.442Z,667.61
2022-11-13T00:16:04.378Z,667.21
2022-11-13T00:17:01.322Z,666.23
2022-11-13T00:18:01.346Z,664.89
2022-11-13T00:19:01.326Z,664
2022-11-13T00:20:01.328Z,661.86
2022-11-13T00:21:01.329Z,660.74
2022-11-13T00:22:01.336Z,659.54
2022-11-13T00:23:01.356Z,658.53
2022-11-13T00:24:01.337Z,657.66
2022-11-13T00:25:01.349Z,657.36
2022-11-13T00:26:01.337Z,656.28
2022-11-13T00:27:01.341Z,655.87
2022-11-13T00:28:01.359Z,655.42
2022-11-13T00:29:01.342Z,655.15
2022-11-13T00:30:01.339Z,654.37
2022-11-13T00:31:01.464Z,654.25
2022-11-13T00:32:01.343Z,653.24
2022-11-13T00:33:01.371Z,653.08
2022-11-13T00:34:14.410Z,652.75
2022-11-13T00:35:01.351Z,651.1
2022-11-13T00:36:01.352Z,651.1
2022-11-13T00:37:01.350Z,650.84
2022-11-13T00:38:01.379Z,650.32
2022-11-13T00:39:01.358Z,651.07
2022-11-13T00:40:01.363Z,651.84
2022-11-13T00:41:01.363Z,652.7
2022-11-13T00:42:01.363Z,652.79
2022-11-13T00:43:01.385Z,652.57
2022-11-13T00:44:01.365Z,652.74
2022-11-13T00:45:01.362Z,653.82
2022-11-13T00:46:01.367Z,654.41
2022-11-13T00:47:01.611Z,654.67
2022-11-13T00:48:01.388Z,654.14
2022-11-13T00:49:01.371Z,655.09
2022-11-13T00:50:01.372Z,655.06
2022-11-13T00:51:01.375Z,655.41
2022-11-13T00:52:01.380Z,655.01
2022-11-13T00:53:01.402Z,656.12
2022-11-13T00:54:01.382Z,656.64
2022-11-13T00:55:01.379Z,656.91
2022-11-13T00:56:01.388Z,656.77
2022-11-13T00:57:01.389Z,656.71
2022-11-13T00:58:01.410Z,656.91
2022-11-13T00:59:01.391Z,656.71
2022-11-13T01:00:01.387Z,656.78
2022-11-13T01:01:01.391Z,656.86
2022-11-13T01:02:01.450Z,657.19
2022-11-13T01:03:01.557Z,657.01
2022-11-13T01:04:01.396Z,657.42
2022-11-13T01:05:01.403Z,657.39
2022-11-13T01:06:01.399Z,657.34
2022-11-13T01:07:01.412Z,657.54
2022-11-13T01:08:01.423Z,656.91
2022-11-13T01:09:01.402Z,656.92
2022-11-13T01:10:01.401Z,656.04
2022-11-13T01:11:01.407Z,656.2
2022-11-13T01:12:01.410Z,655.45
2022-11-13T01:13:01.427Z,655.49
2022-11-13T01:14:01.411Z,654.63
2022-11-13T01:15:01.412Z,654.55
2022-11-13T01:16:01.417Z,653.33
2022-11-13T01:17:01.430Z,652.81
2022-11-13T01:18:01.444Z,652.96
2022-11-13T01:19:01.533Z,652.35
2022-11-13T01:20:01.417Z,652.02
2022-11-13T01:21:01.422Z,650.9
2022-11-13T01:22:01.424Z,651.4
2022-11-13T01:23:01.444Z,651.57
2022-11-13T01:24:01.426Z,650.9
2022-11-13T01:25:01.425Z,650.16
2022-11-13T01:26:01.429Z,649.8
2022-11-13T01:27:04.213Z,649.27
2022-11-13T01:28:01.454Z,649.32
2022-11-13T01:29:01.430Z,648.42
2022-11-13T01:30:01.438Z,647.6
2022-11-13T01:31:01.437Z,646.53
2022-11-13T01:32:01.434Z,645.46
2022-11-13T01:33:01.473Z,644.59
2022-11-13T01:34:01.442Z,643.47
2022-11-13T01:35:01.558Z,643.19
2022-11-13T01:36:01.447Z,643.09
2022-11-13T01:37:01.451Z,643.09
2022-11-13T01:38:01.467Z,642.7
2022-11-13T01:39:01.447Z,642.52
2022-11-13T01:40:01.453Z,642.37
2022-11-13T01:41:01.448Z,641.81
2022-11-13T01:42:01.453Z,642.3
2022-11-13T01:43:01.479Z,642.36
2022-11-13T01:44:01.476Z,641.81
2022-11-13T01:45:01.458Z,641.65
2022-11-13T01:46:01.460Z,641.06
2022-11-13T01:47:01.462Z,639.57
2022-11-13T01:48:01.481Z,638.61
2022-11-13T01:49:01.468Z,637.88
2022-11-13T01:50:01.469Z,636.57
2022-11-13T01:51:01.588Z,635.64
2022-11-13T01:52:01.477Z,633.86
2022-11-13T01:53:01.495Z,633.59
2022-11-13T01:54:01.472Z,631.43
2022-11-13T01:55:01.474Z,630.95
2022-11-13T01:56:01.482Z,629.39
2022-11-13T01:57:01.478Z,628.63
2022-11-13T01:58:01.506Z,627.58
2022-11-13T01:59:04.258Z,626.07
2022-11-13T02:00:01.491Z,625.28
2022-11-13T02:01:01.483Z,624.61
2022-11-13T02:02:01.545Z,623.13
2022-11-13T02:03:01.519Z,622.24
2022-11-13T02:04:01.491Z,621.69
2022-11-13T02:05:01.491Z,621.11
2022-11-13T02:06:01.492Z,620.13
2022-11-13T02:07:01.714Z,619.35
2022-11-13T02:08:01.514Z,617.71
2022-11-13T02:09:01.495Z,616.11
2022-11-13T02:10:02.542Z,614.22
2022-11-13T02:11:01.497Z,613.02
2022-11-13T02:12:01.502Z,611.7
2022-11-13T02:13:01.527Z,610.4
2022-11-13T02:14:01.504Z,608.4
2022-11-13T02:15:01.512Z,606.31
2022-11-13T02:16:01.504Z,602.97
2022-11-13T02:17:01.505Z,600.79
2022-11-13T02:18:01.534Z,599.7
2022-11-13T02:19:01.512Z,598.38
2022-11-13T02:20:01.510Z,597.8
2022-11-13T02:21:04.384Z,597.61
2022-11-13T02:22:01.517Z,598.57
2022-11-13T02:23:01.661Z,597.41
2022-11-13T02:24:01.631Z,597.4
2022-11-13T02:25:01.519Z,597.05
2022-11-13T02:26:01.519Z,596.59
2022-11-13T02:27:01.526Z,596.31
2022-11-13T02:28:01.554Z,596.32
2022-11-13T02:29:01.526Z,596.45
2022-11-13T02:30:01.524Z,596.64
2022-11-13T02:31:01.529Z,595.51
2022-11-13T02:32:04.401Z,594.41
2022-11-13T02:33:01.551Z,594.85
2022-11-13T02:34:01.533Z,594.13
2022-11-13T02:35:01.539Z,592.76
2022-11-13T02:36:01.542Z,592.6
2022-11-13T02:37:01.545Z,592.24
2022-11-13T02:38:01.586Z,591.47
2022-11-13T02:39:01.660Z,591.02
2022-11-13T02:40:01.549Z,590.34
2022-11-13T02:41:01.549Z,589.76
2022-11-13T02:42:01.547Z,589.18
2022-11-13T02:43:01.590Z,588.6
2022-11-13T02:44:01.551Z,588.99
2022-11-13T02:45:01.580Z,589.02
2022-11-13T02:46:01.572Z,587.19
2022-11-13T02:47:01.560Z,587.19
2022-11-13T02:48:01.588Z,586.42
2022-11-13T02:49:01.567Z,585.68
2022-11-13T02:50:01.561Z,584.11
2022-11-13T02:51:01.562Z,583.18
2022-11-13T02:52:01.649Z,582.04
2022-11-13T02:53:01.608Z,581.82
2022-11-13T02:54:01.568Z,581.67
2022-11-13T02:55:01.685Z,582.05
2022-11-13T02:56:01.570Z,582.03
2022-11-13T02:57:01.573Z,582.62
2022-11-13T02:58:01.593Z,582.99
2022-11-13T02:59:01.571Z,583.01
2022-11-13T03:00:01.578Z,582.92
2022-11-13T03:01:01.574Z,582.87
2022-11-13T03:02:01.622Z,583.08
2022-11-13T03:03:01.614Z,583.66
2022-11-13T03:04:01.583Z,582.73
2022-11-13T03:05:17.053Z,583.42
2022-11-13T03:06:01.583Z,583.95
2022-11-13T03:07:01.623Z,584.71
2022-11-13T03:08:01.607Z,584.33
2022-11-13T03:09:01.587Z,583.95
2022-11-13T03:10:01.587Z,582.92
2022-11-13T03:11:01.708Z,582.46
2022-11-13T03:12:01.590Z,581.84
2022-11-13T03:13:01.615Z,581.47
2022-11-13T03:14:01.666Z,580.85
2022-11-13T03:15:01.605Z,579.89
2022-11-13T03:16:01.599Z,578
2022-11-13T03:17:01.606Z,576.91
2022-11-13T03:18:01.624Z,576.17
2022-11-13T03:19:01.605Z,575.93
2022-11-13T03:20:01.616Z,575.78
2022-11-13T03:21:01.610Z,575.77
2022-11-13T03:22:01.606Z,574.65
2022-11-13T03:23:01.632Z,575.38
2022-11-13T03:24:01.609Z,574.97
2022-11-13T03:25:04.927Z,574.61
2022-11-13T03:26:01.615Z,574.17
2022-11-13T03:27:01.730Z,573.22
2022-11-13T03:28:01.639Z,572.68
2022-11-13T03:29:01.618Z,570.94
2022-11-13T03:30:01.635Z,569.4
2022-11-13T03:31:01.625Z,568.53
2022-11-13T03:32:01.621Z,567.76
2022-11-13T03:33:01.646Z,565.66
2022-11-13T03:34:01.630Z,565.04
2022-11-13T03:35:01.630Z,563.27
2022-11-13T03:36:01.627Z,563.34
2022-11-13T03:37:01.649Z,561.8
2022-11-13T03:38:01.659Z,561.98
2022-11-13T03:39:01.634Z,560.63
2022-11-13T03:40:01.636Z,559.7
2022-11-13T03:41:01.638Z,557.94
2022-11-13T03:42:01.638Z,555.88
2022-11-13T03:43:01.779Z,555.25
2022-11-13T03:44:01.643Z,553.95
2022-11-13T03:45:01.643Z,553.45
2022-11-13T03:46:01.643Z,551
2022-11-13T03:47:01.656Z,551.08
2022-11-13T03:48:01.671Z,550.3
2022-11-13T03:49:01.649Z,549.16
2022-11-13T03:50:01.654Z,547.79
2022-11-13T03:51:01.651Z,546.97
2022-11-13T03:52:01.657Z,545.05
2022-11-13T03:53:01.681Z,543.33
2022-11-13T03:54:04.503Z,542.16
2022-11-13T03:55:01.656Z,541.58
2022-11-13T03:56:01.659Z,540.23
2022-11-13T03:57:01.659Z,539.11
2022-11-13T03:58:01.702Z,537.93
2022-11-13T03:59:01.779Z,536.42
2022-11-13T04:00:01.666Z,534.55
2022-11-13T04:01:01.670Z,533.23
2022-11-13T04:02:01.711Z,531.43
2022-11-13T04:03:01.710Z,529.47
2022-11-13T04:04:01.678Z,528.39
2022-11-13T04:05:01.674Z,527.91
2022-11-13T04:06:01.678Z,526.72
2022-11-13T04:07:01.734Z,526.71
2022-11-13T04:08:01.709Z,526.96
2022-11-13T04:09:01.681Z,526.68
2022-11-13T04:10:01.680Z,526.12
2022-11-13T04:11:01.687Z,524.15
2022-11-13T04:12:01.692Z,522.62
2022-11-13T04:13:01.714Z,521.25
2022-11-13T04:14:01.685Z,519.68
2022-11-13T04:15:01.811Z,518.45
2022-11-13T04:16:01.702Z,516.05
2022-11-13T04:17:01.697Z,515.02
2022-11-13T04:18:01.720Z,514.39
2022-11-13T04:19:01.697Z,513.66
2022-11-13T04:20:01.697Z,512.88
2022-11-13T04:21:01.701Z,512.28
2022-11-13T04:22:01.703Z,510.9
2022-11-13T04:23:01.727Z,509.45
2022-11-13T04:24:01.705Z,509.02
2022-11-13T04:25:01.705Z,508.67
2022-11-13T04:26:04.573Z,508.82
2022-11-13T04:27:01.713Z,508.19
2022-11-13T04:28:01.732Z,508.42
2022-11-13T04:29:01.714Z,508.87
2022-11-13T04:30:01.714Z,508.64
2022-11-13T04:31:01.836Z,508.69
2022-11-13T04:32:01.721Z,508.89
2022-11-13T04:33:01.736Z,508.45
2022-11-13T04:34:01.723Z,508.7
2022-11-13T04:35:01.722Z,508.69
2022-11-13T04:36:01.725Z,508.1
2022-11-13T04:37:04.814Z,507.04
2022-11-13T04:38:01.749Z,506.26
2022-11-13T04:39:01.725Z,504.59
2022-11-13T04:40:01.729Z,503.28
2022-11-13T04:41:01.735Z,502.03
2022-11-13T04:42:01.733Z,501.87
2022-11-13T04:43:01.757Z,500.94
2022-11-13T04:44:01.736Z,500.93
2022-11-13T04:45:01.737Z,499.95
2022-11-13T04:46:01.745Z,499.09
2022-11-13T04:47:01.860Z,497.11
2022-11-13T04:48:03.402Z,495.72
2022-11-13T04:49:01.743Z,495.69
2022-11-13T04:50:01.748Z,494.89
2022-11-13T04:51:01.752Z,494.28
2022-11-13T04:52:01.753Z,495.45
2022-11-13T04:53:01.757Z,494.41
2022-11-13T04:54:01.751Z,493.78
2022-11-13T04:55:01.751Z,493.59
2022-11-13T04:56:01.752Z,492.68
2022-11-13T04:57:01.758Z,491.49
2022-11-13T04:58:01.756Z,490.09
2022-11-13T04:59:04.772Z,489.16
2022-11-13T05:00:02.007Z,488.8
2022-11-13T05:01:01.759Z,487.6
2022-11-13T05:02:01.879Z,487.41
2022-11-13T05:03:01.888Z,486.22
2022-11-13T05:04:01.769Z,484.62
2022-11-13T05:05:04.852Z,481.83
2022-11-13T05:06:01.778Z,480.57
2022-11-13T05:07:01.820Z,480.23
2022-11-13T05:08:01.772Z,479.52
2022-11-13T05:09:01.773Z,478.15
2022-11-13T05:10:01.797Z,478.12
2022-11-13T05:11:01.776Z,477.46
2022-11-13T05:12:01.781Z,477.32
2022-11-13T05:13:01.782Z,476.85
2022-11-13T05:14:03.529Z,477.27
2022-11-13T05:15:01.783Z,476.47
2022-11-13T05:16:01.790Z,475.21
2022-11-13T05:17:01.789Z,474.19
2022-11-13T05:18:01.788Z,474.36
2022-11-13T05:19:01.907Z,473.17
2022-11-13T05:20:01.795Z,472.95
2022-11-13T05:21:01.806Z,472.06
2022-11-13T05:22:01.792Z,472.3
2022-11-13T05:23:01.801Z,472.57
2022-11-13T05:24:01.796Z,472.79
2022-11-13T05:25:01.797Z,472.88
2022-11-13T05:26:01.805Z,472.71
2022-11-13T05:27:01.804Z,472.89
2022-11-13T05:28:01.804Z,472.76
2022-11-13T05:29:01.804Z,473.71
2022-11-13T05:30:01.810Z,473.35
2022-11-13T05:31:01.811Z,472.78
2022-11-13T05:32:01.811Z,472.99
2022-11-13T05:33:01.809Z,471.51
2022-11-13T05:34:05.669Z,471.02
2022-11-13T05:35:01.941Z,470.8
2022-11-13T05:36:01.817Z,470.9
2022-11-13T05:37:01.819Z,470.07
2022-11-13T05:38:01.821Z,469.24
2022-11-13T05:39:01.823Z,468.65
2022-11-13T05:40:01.820Z,468.61
2022-11-13T05:41:01.823Z,467.6
2022-11-13T05:42:01.827Z,466.31
2022-11-13T05:43:01.826Z,465.3
2022-11-13T05:44:01.825Z,463.84
2022-11-13T05:45:01.842Z,464.47
2022-11-13T05:46:01.832Z,463.86
2022-11-13T05:47:01.832Z,463.79
2022-11-13T05:48:01.834Z,465.05
2022-11-13T05:49:01.840Z,464.59
2022-11-13T05:50:01.835Z,464.74
2022-11-13T05:51:01.962Z,464.76
2022-11-13T05:52:01.848Z,463.91
2022-11-13T05:53:01.842Z,463.09
2022-11-13T05:54:01.848Z,462.67
2022-11-13T05:55:01.845Z,462.5
2022-11-13T05:56:01.849Z,461.89
2022-11-13T05:57:01.845Z,461.67
2022-11-13T05:58:01.850Z,460.8
2022-11-13T05:59:01.855Z,460.99
2022-11-13T06:00:01.857Z,459.68
2022-11-13T06:01:01.860Z,460.32
2022-11-13T06:02:01.888Z,459.65
2022-11-13T06:03:01.862Z,459.31
2022-11-13T06:04:01.862Z,458.43
2022-11-13T06:05:01.859Z,457.31
2022-11-13T06:06:01.864Z,455.81
2022-11-13T06:07:02.011Z,455
2022-11-13T06:08:01.862Z,451.97
2022-11-13T06:09:01.877Z,450.52
2022-11-13T06:10:01.868Z,448.2
2022-11-13T06:11:01.871Z,445.22
2022-11-13T06:12:01.877Z,444.25
2022-11-13T06:13:01.872Z,443
2022-11-13T06:14:01.876Z,442.74
2022-11-13T06:15:01.881Z,443.16
2022-11-13T06:16:01.877Z,443.2
2022-11-13T06:17:01.875Z,443.38
2022-11-13T06:18:01.955Z,443.55
2022-11-13T06:19:01.897Z,443.48
2022-11-13T06:20:01.879Z,444.48
2022-11-13T06:21:04.671Z,444.49
2022-11-13T06:22:01.890Z,445.57
2022-11-13T06:23:02.005Z,444.22
2022-11-13T06:24:01.889Z,443.45
2022-11-13T06:25:01.892Z,443.12
2022-11-13T06:26:01.891Z,442.75
2022-11-13T06:27:01.896Z,442.75
2022-11-13T06:28:01.892Z,442.75
2022-11-13T06:29:01.938Z,442.62
2022-11-13T06:30:01.898Z,443.11
2022-11-13T06:31:01.898Z,442.29
2022-11-13T06:32:01.903Z,442.48
2022-11-13T06:33:01.904Z,442.49
2022-11-13T06:34:01.903Z,441.65
2022-11-13T06:35:01.909Z,441.01
2022-11-13T06:36:01.914Z,440.26
2022-11-13T06:37:02.048Z,439.17
2022-11-13T06:38:01.914Z,437.8
2022-11-13T06:39:02.111Z,435.73
2022-11-13T06:40:01.915Z,434.91
2022-11-13T06:41:01.920Z,434.07
2022-11-13T06:42:01.922Z,433.4
2022-11-13T06:43:01.917Z,432.88
2022-11-13T06:44:03.250Z,430.63
2022-11-13T06:45:01.926Z,428.97
2022-11-13T06:46:01.927Z,428.14
2022-11-13T06:47:01.924Z,427.55
2022-11-13T06:48:01.932Z,426.85
2022-11-13T06:49:01.931Z,426.86
2022-11-13T06:50:01.928Z,426.46
2022-11-13T06:51:01.944Z,425.21
2022-11-13T06:52:01.935Z,424.3
2022-11-13T06:53:04.951Z,424.16
2022-11-13T06:54:01.937Z,424.11
2022-11-13T06:55:02.061Z,423.5
2022-11-13T06:56:01.939Z,425.43
2022-11-13T06:57:01.945Z,425.4
2022-11-13T06:58:01.943Z,426.93
2022-11-13T06:59:05.125Z,426.07
2022-11-13T07:00:01.954Z,426.08
2022-11-13T07:01:02.006Z,425.78
2022-11-13T07:02:01.951Z,425.04
2022-11-13T07:03:01.951Z,424.8
2022-11-13T07:04:03.457Z,425.59
2022-11-13T07:05:01.958Z,425.04
2022-11-13T07:06:01.955Z,425.42
2022-11-13T07:07:02.004Z,425.85
2022-11-13T07:08:01.958Z,426.95
2022-11-13T07:09:01.959Z,428.6
2022-11-13T07:10:01.963Z,430.43
2022-11-13T07:11:02.084Z,431.48
2022-11-13T07:12:02.533Z,432.13
2022-11-13T07:13:01.971Z,433.38
2022-11-13T07:14:01.973Z,433.76
2022-11-13T07:15:04.894Z,433.08
2022-11-13T07:16:05.970Z,433.96
2022-11-13T07:17:09.492Z,434.31
2022-11-13T07:18:01.974Z,434.96
2022-11-13T07:19:01.975Z,434.92
2022-11-13T07:20:01.975Z,436.26
2022-11-13T07:21:01.982Z,438.73
2022-11-13T07:22:01.979Z,440.12
2022-11-13T07:23:01.984Z,441.35
2022-11-13T07:24:02.002Z,443.6
2022-11-13T07:25:01.986Z,446.49
2022-11-13T07:26:05.179Z,449.57
2022-11-13T07:27:01.997Z,452.03
2022-11-13T07:28:01.993Z,453.6
2022-11-13T07:29:01.992Z,458.95
2022-11-13T07:30:03.764Z,464.91
2022-11-13T07:31:01.996Z,468.82
2022-11-13T07:32:01.996Z,473.68
2022-11-13T07:33:02.004Z,476.98
2022-11-13T07:34:01.999Z,479.35
2022-11-13T07:35:02.000Z,482.79
2022-11-13T07:36:02.004Z,487.86
2022-11-13T07:37:05.030Z,496
2022-11-13T07:38:02.008Z,506.12
2022-11-13T07:39:02.006Z,516.56
2022-11-13T07:40:02.015Z,533.88
2022-11-13T07:41:02.011Z,555.9
2022-11-13T07:42:02.132Z,575.2
2022-11-13T07:43:02.017Z,594.2
2022-11-13T07:44:04.397Z,613.22
2022-11-13T07:45:02.015Z,632.07
2022-11-13T07:46:02.023Z,650.41
2022-11-13T07:47:02.019Z,665.75
2022-11-13T07:48:04.809Z,678.6
2022-11-13T07:49:02.021Z,687.42
2022-11-13T07:50:06.866Z,697
2022-11-13T07:51:02.028Z,702.53
2022-11-13T07:52:02.036Z,707.28
2022-11-13T07:53:02.031Z,711.75
2022-11-13T07:54:02.030Z,713.18
2022-11-13T07:55:02.034Z,714.67
2022-11-13T07:56:02.060Z,716.16
2022-11-13T07:57:05.225Z,715.83
2022-11-13T07:58:02.053Z,717.27
2022-11-13T07:59:02.040Z,716.93
2022-11-13T08:00:02.058Z,715.46
2022-11-13T08:01:02.127Z,714.86
2022-11-13T08:02:02.056Z,713.63
2022-11-13T08:03:02.047Z,712.09
2022-11-13T08:04:02.044Z,710.22
2022-11-13T08:05:02.079Z,709.29
2022-11-13T08:06:02.051Z,706.24
2022-11-13T08:07:02.090Z,703.77
2022-11-13T08:08:02.050Z,701.36
2022-11-13T08:09:02.060Z,698.67
2022-11-13T08:10:02.083Z,694.17
2022-11-13T08:11:02.056Z,688.41
2022-11-13T08:12:02.063Z,685.35
2022-11-13T08:13:02.178Z,682.28
2022-11-13T08:14:02.070Z,678.39
2022-11-13T08:15:02.085Z,675.09
2022-11-13T08:16:02.069Z,672.17
2022-11-13T08:17:02.062Z,670.21
2022-11-13T08:18:02.066Z,667.86
2022-11-13T08:19:02.069Z,665.09
2022-11-13T08:20:02.098Z,662.16
2022-11-13T08:21:02.080Z,659.69
2022-11-13T08:22:02.074Z,657.9
2022-11-13T08:23:02.075Z,655.95
2022-11-13T08:24:02.073Z,654.73
2022-11-13T08:25:02.108Z,653.51
2022-11-13T08:26:02.081Z,651.32
2022-11-13T08:27:02.084Z,650.65
2022-11-13T08:28:02.080Z,650.47
2022-11-13T08:29:02.207Z,651.21
2022-11-13T08:30:02.109Z,650.08
2022-11-13T08:31:02.088Z,650.81
2022-11-13T08:32:02.090Z,649.91
2022-11-13T08:33:02.089Z,650.23
2022-11-13T08:34:02.089Z,649.47
2022-11-13T08:35:02.112Z,649.3
2022-11-13T08:36:02.097Z,648.58
2022-11-13T08:37:02.093Z,649.65
2022-11-13T08:38:02.098Z,648.87
2022-11-13T08:39:02.102Z,649.38
2022-11-13T08:40:02.119Z,649.6
2022-11-13T08:41:05.877Z,649.72
2022-11-13T08:42:02.107Z,650.01
2022-11-13T08:43:02.102Z,649.76
2022-11-13T08:44:02.106Z,649.37
2022-11-13T08:45:02.248Z,648.67
2022-11-13T08:46:02.110Z,647.24
2022-11-13T08:47:02.115Z,647.7
2022-11-13T08:48:02.112Z,647.26
2022-11-13T08:49:02.116Z,647.23
2022-11-13T08:50:02.138Z,646.63
2022-11-13T08:51:02.121Z,647.29
2022-11-13T08:52:02.125Z,647.47
2022-11-13T08:53:02.120Z,646.25
2022-11-13T08:54:02.123Z,645.15
2022-11-13T08:55:02.147Z,644.03
2022-11-13T08:56:02.134Z,643.92
2022-11-13T08:57:05.910Z,642.88
2022-11-13T08:58:02.130Z,642.14
2022-11-13T08:59:02.131Z,641.85
2022-11-13T09:00:02.163Z,641.88
2022-11-13T09:01:02.303Z,641.72
2022-11-13T09:02:02.141Z,641.64
2022-11-13T09:03:02.135Z,641.97
2022-11-13T09:04:02.284Z,642.71
2022-11-13T09:05:02.178Z,644.19
2022-11-13T09:06:02.140Z,645.84
2022-11-13T09:07:02.205Z,648.51
2022-11-13T09:08:02.146Z,651.49
2022-11-13T09:09:02.146Z,653.71
2022-11-13T09:10:02.169Z,655.84
2022-11-13T09:11:02.154Z,657.02
2022-11-13T09:12:02.152Z,660.08
2022-11-13T09:13:02.156Z,661.94
2022-11-13T09:14:02.153Z,664.95
2022-11-13T09:15:02.175Z,667.87
2022-11-13T09:16:02.154Z,669.96
2022-11-13T09:17:02.280Z,672.81
2022-11-13T09:18:02.159Z,676.21
2022-11-13T09:19:02.159Z,678.9
2022-11-13T09:20:04.495Z,679.84
2022-11-13T09:21:02.161Z,682.18
2022-11-13T09:22:02.171Z,684.23
2022-11-13T09:23:02.168Z,686.3
2022-11-13T09:24:02.169Z,688.88
2022-11-13T09:25:02.193Z,691.98
2022-11-13T09:26:02.173Z,694.27
2022-11-13T09:27:02.240Z,696.36
2022-11-13T09:28:02.183Z,698.94
2022-11-13T09:29:02.179Z,701.54
2022-11-13T09:30:02.229Z,703.25
2022-11-13T09:31:05.282Z,704.83
2022-11-13T09:32:02.189Z,708.35
2022-11-13T09:33:02.310Z,710.91
2022-11-13T09:34:02.184Z,714.25
2022-11-13T09:35:02.206Z,717.68
2022-11-13T09:36:02.183Z,720.21
2022-11-13T09:37:02.187Z,722.22
2022-11-13T09:38:05.359Z,724.8
2022-11-13T09:39:02.200Z,728.42
2022-11-13T09:40:02.214Z,730.29
2022-11-13T09:41:02.191Z,732.91
2022-11-13T09:42:03.416Z,734.77
2022-11-13T09:43:02.197Z,737.06
2022-11-13T09:44:02.192Z,737.84
2022-11-13T09:45:02.218Z,740.03
2022-11-13T09:46:02.203Z,740.9
2022-11-13T09:47:02.206Z,741.21
2022-11-13T09:48:02.203Z,742.25
2022-11-13T09:49:02.327Z,742.11
2022-11-13T09:50:02.228Z,744.06
2022-11-13T09:51:02.206Z,745.32
2022-11-13T09:52:06.306Z,747.65
2022-11-13T09:53:05.214Z,751.12
2022-11-13T09:54:02.218Z,753.11
2022-11-13T09:55:02.234Z,756.28
2022-11-13T09:56:02.206Z,759.77
2022-11-13T09:57:02.208Z,763.1
2022-11-13T09:58:02.216Z,766.6
2022-11-13T09:59:02.212Z,770.16
2022-11-13T10:00:02.231Z,771.99
2022-11-13T10:01:02.286Z,774.5
2022-11-13T10:02:02.215Z,776.54
2022-11-13T10:03:02.218Z,778.39
2022-11-13T10:04:05.196Z,781.54
2022-11-13T10:05:02.243Z,784.79
2022-11-13T10:06:02.223Z,787.63
2022-11-13T10:07:02.306Z,790.64
2022-11-13T10:08:02.224Z,793.04
2022-11-13T10:09:02.229Z,796.25
2022-11-13T10:10:02.248Z,799.23
2022-11-13T10:11:02.227Z,801.23
2022-11-13T10:12:02.229Z,804.11
2022-11-13T10:13:02.230Z,807.63
2022-11-13T10:14:02.234Z,810.2
2022-11-13T10:15:05.509Z,813.57
2022-11-13T10:16:02.234Z,816.61
2022-11-13T10:17:02.300Z,819.1
2022-11-13T10:18:02.245Z,821.29
2022-11-13T10:19:02.236Z,823.23
2022-11-13T10:20:02.356Z,824.55
2022-11-13T10:21:05.581Z,826.33
2022-11-13T10:22:26.263Z,827.67
2022-11-13T10:23:02.240Z,828.94
2022-11-13T10:24:02.248Z,831.21
2022-11-13T10:25:02.247Z,833.27
2022-11-13T10:26:02.250Z,836.22
2022-11-13T10:27:02.265Z,838.82
2022-11-13T10:28:11.336Z,842.17
2022-11-13T10:29:02.326Z,845.07
2022-11-13T10:30:02.253Z,847.9
2022-11-13T10:31:02.261Z,850.34
2022-11-13T10:32:02.254Z,853.93
2022-11-13T10:33:02.252Z,858.19
2022-11-13T10:34:02.257Z,861.92
2022-11-13T10:35:02.261Z,865.58
2022-11-13T10:36:02.375Z,869.94
2022-11-13T10:37:02.303Z,873.03
2022-11-13T10:38:07.727Z,876.59
2022-11-13T10:39:02.268Z,878.78
2022-11-13T10:40:02.268Z,882.03
2022-11-13T10:41:02.265Z,884.2
2022-11-13T10:42:02.280Z,886.29
2022-11-13T10:43:02.267Z,887.92
2022-11-13T10:44:02.269Z,890.82
2022-11-13T10:45:02.278Z,892.92
2022-11-13T10:46:02.461Z,894.69
2022-11-13T10:47:02.277Z,896.88
2022-11-13T10:48:04.859Z,897.8
2022-11-13T10:49:02.285Z,900.08
2022-11-13T10:50:02.283Z,900.65
2022-11-13T10:51:02.335Z,901.71
2022-11-13T10:52:02.403Z,902.68
2022-11-13T10:53:02.305Z,903.94
2022-11-13T10:54:02.285Z,906.14
2022-11-13T10:55:02.285Z,907.82
2022-11-13T10:56:02.287Z,910.23
2022-11-13T10:57:02.291Z,911.85
2022-11-13T10:58:02.294Z,913.88
2022-11-13T10:59:02.297Z,915.75
2022-11-13T11:00:02.362Z,917.19
2022-11-13T11:01:02.390Z,918.76
2022-11-13T11:02:02.300Z,921.03
2022-11-13T11:03:02.301Z,921.58
2022-11-13T11:04:02.307Z,923.56
2022-11-13T11:05:02.316Z,924.42
2022-11-13T11:06:02.303Z,925.61
2022-11-13T11:07:19.465Z,926.21
2022-11-13T11:08:02.546Z,926.9
2022-11-13T11:09:02.313Z,927.69
2022-11-13T11:10:02.316Z,928.58
2022-11-13T11:11:02.309Z,929.7
2022-11-13T11:12:02.316Z,930.07
2022-11-13T11:13:02.313Z,931.14
2022-11-13T11:14:02.314Z,931.93
2022-11-13T11:15:02.322Z,932.64
2022-11-13T11:16:02.321Z,933.11
2022-11-13T11:17:02.321Z,934.12
2022-11-13T11:18:02.330Z,935.32
2022-11-13T11:19:02.321Z,936.44
2022-11-13T11:20:02.323Z,937.76
2022-11-13T11:21:02.331Z,939.98
2022-11-13T11:22:02.327Z,941.56
2022-11-13T11:23:02.337Z,944.2
2022-11-13T11:24:02.448Z,946.58
2022-11-13T11:25:02.335Z,949.35
2022-11-13T11:26:02.335Z,951.79
2022-11-13T11:27:02.338Z,954.21
2022-11-13T11:28:02.344Z,957.04
2022-11-13T11:29:02.338Z,960.45
2022-11-13T11:30:02.338Z,963.35
2022-11-13T11:31:02.346Z,965.89
2022-11-13T11:32:02.343Z,968.15
2022-11-13T11:33:02.344Z,969.81
2022-11-13T11:34:02.345Z,971.44
2022-11-13T11:35:02.346Z,972.22
2022-11-13T11:36:02.374Z,973.06
2022-11-13T11:37:02.356Z,973.88
2022-11-13T11:38:02.359Z,974.04
2022-11-13T11:39:02.355Z,974
2022-11-13T11:40:02.480Z,973.93
2022-11-13T11:41:02.364Z,974.77
2022-11-13T11:42:02.364Z,975.35
2022-11-13T11:43:02.364Z,974.86
2022-11-13T11:44:02.361Z,975.45
2022-11-13T11:45:02.365Z,975.41
2022-11-13T11:46:02.367Z,975.57
2022-11-13T11:47:02.373Z,975.83
2022-11-13T11:48:02.370Z,976.25
2022-11-13T11:49:02.386Z,976.48
2022-11-13T11:50:02.373Z,976.8
2022-11-13T11:51:02.375Z,977.13
2022-11-13T11:52:02.378Z,977.47
2022-11-13T11:53:02.378Z,977.78
2022-11-13T11:54:02.390Z,978.14
2022-11-13T11:55:02.379Z,979.04
2022-11-13T11:56:02.497Z,979.29
2022-11-13T11:57:02.387Z,979.85
2022-11-13T11:58:05.144Z,980.51
2022-11-13T11:59:02.390Z,981.54
2022-11-13T12:00:02.390Z,982.33
2022-11-13T12:01:02.392Z,983.16
2022-11-13T12:02:02.401Z,984.24
2022-11-13T12:03:02.398Z,985.2
2022-11-13T12:04:02.409Z,985.63
2022-11-13T12:05:02.497Z,986.96
2022-11-13T12:06:02.396Z,987.68
2022-11-13T12:07:02.454Z,988.76
2022-11-13T12:08:02.399Z,989.55
2022-11-13T12:09:03.500Z,990.59
2022-11-13T12:10:02.405Z,991.28
2022-11-13T12:11:02.406Z,992.23
2022-11-13T12:12:02.538Z,993.61
2022-11-13T12:13:02.407Z,994.73
2022-11-13T12:14:02.410Z,997.23
2022-11-13T12:15:02.416Z,999.09
2022-11-13T12:16:02.415Z,1000.99
2022-11-13T12:17:02.665Z,1002.41
2022-11-13T12:18:02.415Z,1004.08
2022-11-13T12:19:02.419Z,1005.04
2022-11-13T12:20:05.586Z,1006.69
2022-11-13T12:21:02.438Z,1008.28
2022-11-13T12:22:02.516Z,1009.37
2022-11-13T12:23:02.428Z,1010.71
2022-11-13T12:24:02.428Z,1011.72
2022-11-13T12:25:02.427Z,1012.95
2022-11-13T12:26:02.457Z,1013.87
2022-11-13T12:27:02.431Z,1015.13
2022-11-13T12:28:02.551Z,1015.96
2022-11-13T12:29:02.435Z,1017.1
2022-11-13T12:30:02.442Z,1017.99
2022-11-13T12:31:05.607Z,1018.23